Time,TemperatureF,DewpointF,PressureIn,WindDirection,WindDirectionDegrees,WindSpeedMPH,WindSpeedGustMPH,Humidity,HourlyPrecipIn,Conditions,Clouds,dailyrainin,SoftwareType,DateUTC
2013-09-30 00:05:00,47.0,45.9,30.04,West,267,0.0,0.0,96,0.00,,,0.00,Wunderground v.1.15,2013-09-30 04:05:00,
2013-09-30 00:45:00,46.2,45.1,30.04,West,267,1.0,1.0,96,0.00,,,0.00,Wunderground v.1.15,2013-09-30 04:45:00,
2013-09-30 00:55:00,45.7,44.6,30.04,West,267,0.0,0.0,96,0.00,,,0.00,Wunderground v.1.15,2013-09-30 04:55:00,
2013-09-30 01:06:00,45.4,44.3,30.04,West,267,0.0,0.0,96,0.00,,,0.00,Wunderground v.1.15,2013-09-30 05:06:00,
2013-09-30 01:16:00,45.5,44.4,30.04,West,267,0.0,0.0,96,0.00,,,0.00,Wunderground v.1.15,2013-09-30 05:16:00,
2013-09-30 01:25:00,45.7,44.9,30.04,West,267,0.0,0.0,97,0.00,,,0.00,Wunderground v.1.15,2013-09-30 05:25:00,
2013-09-30 01:36:00,46.0,45.2,30.04,West,267,0.0,0.0,97,0.00,,,0.00,Wunderground v.1.15,2013-09-30 05:36:00,
2013-09-30 01:46:00,46.1,45.3,30.04,West,267,0.0,0.0,97,0.00,,,0.00,Wunderground v.1.15,2013-09-30 05:46:00,
2013-09-30 01:55:00,46.0,45.2,30.04,West,267,0.0,0.0,97,0.00,,,0.00,Wunderground v.1.15,2013-09-30 05:55:00,
2013-09-30 02:15:00,45.5,44.7,30.03,West,267,1.0,1.0,97,0.00,,,0.00,Wunderground v.1.15,2013-09-30 06:15:00,
2013-09-30 02:25:00,45.8,45.0,30.03,West,267,0.0,0.0,97,0.00,,,0.00,Wunderground v.1.15,2013-09-30 06:25:00,
2013-09-30 02:36:00,45.1,44.3,30.02,West,267,0.0,0.0,97,0.00,,,0.00,Wunderground v.1.15,2013-09-30 06:36:00,
2013-09-30 02:45:00,44.9,44.1,30.02,West,267,0.0,2.0,97,0.00,,,0.00,Wunderground v.1.15,2013-09-30 06:45:00,
2013-09-30 02:55:00,44.8,44.0,30.02,West,267,2.0,2.0,97,0.00,,,0.00,Wunderground v.1.15,2013-09-30 06:55:00,
2013-09-30 03:05:00,44.6,43.8,30.02,West,267,1.0,1.0,97,0.00,,,0.00,Wunderground v.1.15,2013-09-30 07:05:00,
2013-09-30 03:15:00,45.1,44.3,30.02,West,267,0.0,0.0,97,0.00,,,0.00,Wunderground v.1.15,2013-09-30 07:15:00,
2013-09-30 03:25:00,44.5,43.7,30.02,West,267,0.0,0.0,97,0.00,,,0.00,Wunderground v.1.15,2013-09-30 07:25:00,
2013-09-30 03:35:00,44.3,43.5,30.01,West,267,0.0,0.0,97,0.00,,,0.00,Wunderground v.1.15,2013-09-30 07:35:00,
2013-09-30 04:15:00,44.3,43.5,30.01,West,267,0.0,0.0,97,0.00,,,0.00,Wunderground v.1.15,2013-09-30 08:15:00,
2013-09-30 04:36:00,44.3,43.5,30.00,West,267,0.0,0.0,97,0.00,,,0.00,Wunderground v.1.15,2013-09-30 08:36:00,
2013-09-30 04:45:00,44.1,43.3,30.01,West,267,0.0,0.0,97,0.00,,,0.00,Wunderground v.1.15,2013-09-30 08:45:00,
2013-09-30 04:55:00,44.1,43.3,30.01,West,267,0.0,0.0,97,0.00,,,0.00,Wunderground v.1.15,2013-09-30 08:55:00,
2013-09-30 05:05:00,43.6,42.8,30.01,West,267,0.0,0.0,97,0.00,,,0.00,Wunderground v.1.15,2013-09-30 09:05:00,
2013-09-30 05:15:00,44.1,43.6,30.02,West,267,0.0,0.0,98,0.00,,,0.00,Wunderground v.1.15,2013-09-30 09:15:00,
2013-09-30 05:25:00,44.8,44.3,30.02,West,267,0.0,0.0,98,0.00,,,0.00,Wunderground v.1.15,2013-09-30 09:25:00,
2013-09-30 05:35:00,44.5,44.0,30.02,West,267,0.0,0.0,98,0.00,,,0.00,Wunderground v.1.15,2013-09-30 09:35:00,
2013-09-30 05:45:00,44.6,44.1,30.02,West,267,0.0,0.0,98,0.00,,,0.00,Wunderground v.1.15,2013-09-30 09:45:00,
2013-09-30 06:25:00,44.2,43.7,30.03,West,267,0.0,0.0,98,0.00,,,0.00,Wunderground v.1.15,2013-09-30 10:25:00,
2013-09-30 06:36:00,44.2,43.7,30.03,West,267,0.0,0.0,98,0.00,,,0.00,Wunderground v.1.15,2013-09-30 10:36:00,
2013-09-30 06:46:00,43.6,43.1,30.03,West,267,1.0,2.0,98,0.00,,,0.00,Wunderground v.1.15,2013-09-30 10:46:00,
2013-09-30 06:56:00,43.6,43.1,30.03,West,267,1.0,1.0,98,0.00,,,0.00,Wunderground v.1.15,2013-09-30 10:56:00,
2013-09-30 07:06:00,44.1,43.6,30.03,West,267,0.0,0.0,98,0.00,,,0.00,Wunderground v.1.15,2013-09-30 11:06:00,
2013-09-30 07:15:00,44.3,43.8,30.04,West,267,0.0,0.0,98,0.00,,,0.00,Wunderground v.1.15,2013-09-30 11:15:00,
2013-09-30 07:25:00,44.6,44.1,30.04,West,267,0.0,0.0,98,0.00,,,0.01,Wunderground v.1.15,2013-09-30 11:25:00,
2013-09-30 07:36:00,46.7,46.2,30.04,West,267,0.0,0.0,98,0.00,,,0.01,Wunderground v.1.15,2013-09-30 11:36:00,
2013-09-30 07:45:00,47.3,46.8,30.03,West,267,0.0,0.0,98,0.00,,,0.01,Wunderground v.1.15,2013-09-30 11:45:00,
2013-09-30 08:05:00,46.8,46.0,30.02,West,267,1.0,1.0,97,0.00,,,0.01,Wunderground v.1.15,2013-09-30 12:05:00,
2013-09-30 08:15:00,47.4,46.6,30.03,West,267,1.0,1.0,97,0.00,,,0.01,Wunderground v.1.15,2013-09-30 12:15:00,
2013-09-30 08:35:00,50.4,48.7,30.02,South,179,1.0,2.0,94,0.00,,,0.01,Wunderground v.1.15,2013-09-30 12:35:00,
2013-09-30 08:46:00,51.0,47.9,30.02,SSE,152,1.0,1.0,89,0.00,,,0.01,Wunderground v.1.15,2013-09-30 12:46:00,
2013-09-30 08:55:00,52.3,48.2,30.02,SSE,152,1.0,1.0,86,0.00,,,0.01,Wunderground v.1.15,2013-09-30 12:55:00,
2013-09-30 09:05:00,53.5,48.1,30.01,SSE,152,1.0,1.0,82,0.00,,,0.01,Wunderground v.1.15,2013-09-30 13:05:00,
2013-09-30 09:15:00,54.2,48.5,30.02,SSE,152,1.0,1.0,81,0.00,,,0.01,Wunderground v.1.15,2013-09-30 13:15:00,
2013-09-30 09:26:00,54.7,49.0,30.02,SSE,152,0.0,0.0,81,0.00,,,0.01,Wunderground v.1.15,2013-09-30 13:26:00,
2013-09-30 09:45:00,56.2,50.1,30.01,ESE,107,1.0,1.0,80,0.00,,,0.01,Wunderground v.1.15,2013-09-30 13:45:00,
2013-09-30 09:55:00,57.3,51.2,30.01,ESE,107,0.0,0.0,80,0.00,,,0.01,Wunderground v.1.15,2013-09-30 13:55:00,
2013-09-30 10:16:00,59.3,51.4,30.00,ESE,113,1.0,1.0,75,0.00,,,0.01,Wunderground v.1.15,2013-09-30 14:16:00,
2013-09-30 10:45:00,61.3,51.0,29.98,SE,133,2.0,2.0,69,0.00,,,0.01,Wunderground v.1.15,2013-09-30 14:45:00,
2013-09-30 10:55:00,61.6,51.3,29.98,SE,139,1.0,3.0,69,0.00,,,0.01,Wunderground v.1.15,2013-09-30 14:55:00,
2013-09-30 12:06:00,64.3,52.7,29.96,East,95,2.0,2.0,66,0.00,,,0.01,Wunderground v.1.15,2013-09-30 16:06:00,
2013-09-30 12:35:00,66.1,51.4,29.96,SE,140,3.0,4.0,59,0.00,,,0.01,Wunderground v.1.15,2013-09-30 16:35:00,
2013-09-30 12:45:00,66.6,51.4,29.95,SE,134,3.0,3.0,58,0.00,,,0.01,Wunderground v.1.15,2013-09-30 16:45:00,
2013-09-30 12:55:00,66.8,51.5,29.95,ESE,113,2.0,2.0,58,0.00,,,0.01,Wunderground v.1.15,2013-09-30 16:55:00,
2013-09-30 13:16:00,67.8,49.5,29.94,SE,138,2.0,2.0,52,0.00,,,0.01,Wunderground v.1.15,2013-09-30 17:16:00,
2013-09-30 13:25:00,68.6,49.2,29.94,SSE,153,2.0,3.0,50,0.00,,,0.01,Wunderground v.1.15,2013-09-30 17:25:00,
2013-09-30 13:36:00,68.4,49.0,29.94,SSE,157,2.0,3.0,50,0.00,,,0.01,Wunderground v.1.15,2013-09-30 17:36:00,
2013-09-30 13:45:00,68.4,49.0,29.94,SSE,157,2.0,4.0,50,0.00,,,0.01,Wunderground v.1.15,2013-09-30 17:45:00,
2013-09-30 13:56:00,68.1,49.8,29.94,South,190,3.0,3.0,52,0.00,,,0.01,Wunderground v.1.15,2013-09-30 17:56:00,
2013-09-30 14:06:00,69.1,49.1,29.94,South,188,2.0,3.0,49,0.00,,,0.01,Wunderground v.1.15,2013-09-30 18:06:00,
2013-09-30 14:16:00,69.3,49.3,29.93,SW,217,3.0,3.0,49,0.00,,,0.01,Wunderground v.1.15,2013-09-30 18:16:00,
2013-09-30 14:26:00,69.4,48.9,29.93,South,184,2.0,3.0,48,0.00,,,0.01,Wunderground v.1.15,2013-09-30 18:26:00,
2013-09-30 14:46:00,67.6,50.4,29.92,SSE,148,3.0,3.0,54,0.00,,,0.01,Wunderground v.1.15,2013-09-30 18:46:00,
2013-09-30 14:56:00,67.9,49.6,29.92,ESE,120,2.0,3.0,52,0.00,,,0.01,Wunderground v.1.15,2013-09-30 18:56:00,
2013-09-30 15:26:00,69.1,51.8,29.92,SE,136,2.0,4.0,54,0.00,,,0.01,Wunderground v.1.15,2013-09-30 19:26:00,
2013-09-30 16:15:00,67.6,51.3,29.91,SE,137,2.0,3.0,56,0.00,,,0.01,Wunderground v.1.15,2013-09-30 20:15:00,
2013-09-30 16:35:00,67.1,52.3,29.91,SE,127,2.0,2.0,59,0.00,,,0.01,Wunderground v.1.15,2013-09-30 20:35:00,
2013-09-30 16:46:00,67.4,51.6,29.91,SE,143,1.0,1.0,57,0.00,,,0.01,Wunderground v.1.15,2013-09-30 20:46:00,
2013-09-30 16:55:00,68.3,52.0,29.91,SSE,159,1.0,1.0,56,0.00,,,0.01,Wunderground v.1.15,2013-09-30 20:55:00,
2013-09-30 17:06:00,67.1,52.3,29.91,SE,138,1.0,7.0,59,0.00,,,0.01,Wunderground v.1.15,2013-09-30 21:06:00,
2013-09-30 17:16:00,66.8,52.0,29.91,SSE,153,1.0,1.0,59,0.00,,,0.01,Wunderground v.1.15,2013-09-30 21:16:00,
2013-09-30 18:26:00,62.7,51.6,29.92,SSE,150,2.0,2.0,67,0.00,,,0.01,Wunderground v.1.15,2013-09-30 22:26:00,
2013-09-30 18:35:00,62.3,52.4,29.92,SSE,150,2.0,2.0,70,0.00,,,0.01,Wunderground v.1.15,2013-09-30 22:35:00,
2013-09-30 18:45:00,61.5,52.0,29.93,SSE,150,0.0,1.0,71,0.00,,,0.01,Wunderground v.1.15,2013-09-30 22:45:00,
2013-09-30 19:05:00,60.2,51.9,29.93,SSE,161,0.0,0.0,74,0.00,,,0.01,Wunderground v.1.15,2013-09-30 23:05:00,
2013-09-30 19:46:00,58.3,52.2,29.93,SSE,161,0.0,0.0,80,0.00,,,0.01,Wunderground v.1.15,2013-09-30 23:46:00,
2013-09-30 20:16:00,55.7,51.6,29.93,SSE,161,0.0,0.0,86,0.00,,,0.01,Wunderground v.1.15,2013-10-01 00:16:00,
2013-09-30 20:25:00,55.4,51.6,29.93,SSE,161,0.0,0.0,87,0.00,,,0.01,Wunderground v.1.15,2013-10-01 00:25:00,
2013-09-30 21:06:00,53.5,50.6,29.93,SSE,161,0.0,0.0,90,0.00,,,0.01,Wunderground v.1.15,2013-10-01 01:06:00,
2013-09-30 21:25:00,52.6,50.3,29.92,SSE,161,0.0,0.0,92,0.00,,,0.01,Wunderground v.1.15,2013-10-01 01:25:00,
2013-09-30 21:35:00,52.0,49.7,29.92,SSE,161,0.0,0.0,92,0.00,,,0.01,Wunderground v.1.15,2013-10-01 01:35:00,
2013-09-30 21:56:00,51.6,49.9,29.92,SSE,161,0.0,0.0,94,0.00,,,0.01,Wunderground v.1.15,2013-10-01 01:56:00,
2013-09-30 22:06:00,51.7,50.3,29.92,SSE,161,0.0,0.0,95,0.00,,,0.01,Wunderground v.1.15,2013-10-01 02:06:00,
2013-09-30 22:15:00,51.7,50.3,29.92,SSE,161,0.0,0.0,95,0.00,,,0.01,Wunderground v.1.15,2013-10-01 02:15:00,
2013-09-30 22:25:00,51.3,49.9,29.92,SSE,161,0.0,0.0,95,0.00,,,0.01,Wunderground v.1.15,2013-10-01 02:25:00,
2013-09-30 22:35:00,51.3,50.2,29.92,SSE,161,0.0,0.0,96,0.00,,,0.01,Wunderground v.1.15,2013-10-01 02:35:00,
2013-09-30 22:45:00,51.6,50.5,29.91,SSE,161,0.0,0.0,96,0.00,,,0.01,Wunderground v.1.15,2013-10-01 02:45:00,
2013-09-30 23:05:00,51.3,50.2,29.91,SSE,161,1.0,1.0,96,0.00,,,0.01,Wunderground v.1.15,2013-10-01 03:05:00,
2013-09-30 23:25:00,50.4,49.0,29.91,South,178,2.0,2.0,95,0.00,,,0.01,Wunderground v.1.15,2013-10-01 03:25:00,
2013-09-30 23:46:00,49.8,48.7,29.91,WNW,293,0.0,0.0,96,0.00,,,0.01,Wunderground v.1.15,2013-10-01 03:46:00,
2013-09-30 23:55:00,49.6,48.5,29.91,WNW,293,0.0,0.0,96,0.00,,,0.01,Wunderground v.1.15,2013-10-01 03:55:00,